Time;durP1;ratioP1;P1;durP2;ratioP2;P2;SDS_P1;SDS_P2;PMS_P1;PMS_P2;Temp;Humidity;BMP_temperature;BMP_pressure;BME280_temperature;BME280_humidity;BME280_pressure;Samples;Min_cycle;Max_cycle;Signal;HPM_P1;HPM_P2
2022/04/29 00:02:06;;;;;;;;;;;;;;;;;;5025347;28;1116;-82
2022/04/29 00:04:32;;;;;;;;;;;;;;;;;;5023546;28;1275;-82
2022/04/29 00:06:57;;;;;;;;;;;;;;;;;;5024665;28;1129;-82
2022/04/29 00:09:23;;;;;;;;;;;;;;;;;;5028647;28;1153;-82
2022/04/29 00:11:50;;;;;;;;;;;;;;;;;;5008140;28;1895;-82
2022/04/29 00:14:16;;;;;;;;;;;;;;;;;;5035014;28;1302;-83
2022/04/29 00:16:41;;;;;;;;;;;;;;;;;;5031246;28;1270;-83
2022/04/29 00:19:06;;;;;;;;;;;;;;;;;;5034449;28;1228;-82
2022/04/29 00:21:32;;;;;;;;;;;;;;;;;;5022239;28;1236;-82
2022/04/29 00:23:57;;;;;;;;;;;;;;;;;;5041158;28;1273;-82
2022/04/29 00:26:23;;;;;;;;;;;;;;;;;;5022884;28;1299;-81
2022/04/29 00:28:48;;;;;;;;;;;;;;;;;;5025906;28;1214;-83
2022/04/29 00:31:17;;;;;;;;;;;;;;;;;;5039547;28;1910;-83
2022/04/29 00:33:42;;;;;;;;;;;;;;;;;;5033119;28;1121;-83
2022/04/29 00:36:07;;;;;;;;;;;;;;;;;;5027114;28;1145;-82
2022/04/29 00:38:33;;;;;;;;;;;;;;;;;;5025655;28;1145;-81
2022/04/29 00:40:58;;;;;;;;;;;;;;;;;;5045621;28;1203;-81
2022/04/29 00:43:23;;;;;;;;;;;;;;;;;;5047479;28;1117;-83
2022/04/29 00:45:50;;;;;;;;;;;;;;;;;;5044716;28;1371;-82
2022/04/29 00:48:16;;;;;;;;;;;;;;;;;;5050191;28;1304;-82
2022/04/29 00:50:41;;;;;;;;;;;;;;;;;;5041471;28;1227;-83
2022/04/29 00:53:08;;;;;;;;;;;;;;;;;;5034769;28;1894;-81
2022/04/29 00:55:34;;;;;;;;;;;;;;;;;;5049422;28;1275;-82
2022/04/29 00:58:09;;;;;;;;;;;;;;;;;;5045217;28;1185;-82
2022/04/29 01:00:36;;;;;;;;;;;;;;;;;;5030273;28;1141;-81
2022/04/29 01:03:02;;;;;;;;;;;;;;;;;;5036611;28;1241;-82
2022/04/29 01:05:28;;;;;;;;;;;;;;;;;;5047416;28;1288;-82
2022/04/29 01:07:53;;;;;;;;;;;;;;;;;;5052680;28;1144;-82
2022/04/29 01:10:22;;;;;;;;;;;;;;;;;;5044442;28;1165;-83
2022/04/29 01:12:53;;;;;;;;;;;;;;;;;;5029744;28;1890;-81
2022/04/29 01:15:20;;;;;;;;;;;;;;;;;;5036609;28;1459;-82
2022/04/29 01:17:47;;;;;;;;;;;;;;;;;;5031062;28;1424;-81
2022/04/29 01:20:19;;;;;;;;;;;;;;;;;;5029947;28;1293;-82
2022/04/29 01:22:45;;;;;;;;;;;;;;;;;;5039747;28;1161;-82
2022/04/29 01:25:30;;;;;;;;;;;;;;;;;;5052508;28;1206;-85
2022/04/29 01:27:55;;;;;;;;;;;;;;;;;;5051336;28;1153;-82
2022/04/29 01:30:24;;;;;;;;;;;;;;;;;;5048649;28;1101;-82
2022/04/29 01:32:49;;;;;;;;;;;;;;;;;;5033492;28;1902;-83
2022/04/29 01:35:15;;;;;;;;;;;;;;;;;;5028788;28;1179;-82
2022/04/29 01:37:42;;;;;;;;;;;;;;;;;;5036322;28;1282;-82
2022/04/29 01:40:08;;;;;;;;;;;;;;;;;;5044825;28;1474;-83
2022/04/29 01:42:33;;;;;;;;;;;;;;;;;;5031048;28;1362;-82
2022/04/29 01:44:58;;;;;;;;;;;;;;;;;;5039914;28;1152;-83
2022/04/29 01:47:24;;;;;;;;;;;;;;;;;;5027864;28;1270;-82
2022/04/29 01:49:49;;;;;;;;;;;;;;;;;;5035747;28;1227;-82
2022/04/29 01:52:14;;;;;;;;;;;;;;;;;;5023659;28;1910;-82
2022/04/29 01:54:39;;;;;;;;;;;;;;;;;;5023051;28;1285;-82
2022/04/29 01:57:05;;;;;;;;;;;;;;;;;;5047562;28;1245;-82
2022/04/29 01:59:31;;;;;;;;;;;;;;;;;;5026801;28;1212;-82
2022/04/29 02:01:57;;;;;;;;;;;;;;;;;;5042912;28;1144;-82
2022/04/29 02:04:24;;;;;;;;;;;;;;;;;;5026582;28;1191;-83
2022/04/29 02:06:49;;;;;;;;;;;;;;;;;;5035940;28;1207;-82
2022/04/29 02:09:14;;;;;;;;;;;;;;;;;;5027178;28;1302;-81
2022/04/29 02:11:39;;;;;;;;;;;;;;;;;;5038555;28;1955;-81
2022/04/29 02:14:05;;;;;;;;;;;;;;;;;;5019146;28;1345;-81
2022/04/29 02:16:30;;;;;;;;;;;;;;;;;;5038660;28;1288;-82
2022/04/29 02:18:55;;;;;;;;;;;;;;;;;;5048829;28;1247;-82
2022/04/29 02:21:27;;;;;;;;;;;;;;;;;;5029935;28;1236;-82
2022/04/29 02:23:52;;;;;;;;;;;;;;;;;;5034011;28;1218;-82
2022/04/29 02:26:18;;;;;;;;;;;;;;;;;;5046715;28;1165;-83
2022/04/29 02:28:47;;;;;;;;;;;;;;;;;;5026948;28;1276;-82
2022/04/29 02:31:12;;;;;;;;;;;;;;;;;;5029739;28;1989;-83
2022/04/29 02:33:37;;;;;;;;;;;;;;;;;;5011503;28;1274;-82
2022/04/29 02:36:05;;;;;;;;;;;;;;;;;;5009959;28;1160;-83
2022/04/29 02:38:30;;;;;;;;;;;;;;;;;;5033799;28;1302;-83
2022/04/29 02:40:56;;;;;;;;;;;;;;;;;;5044259;28;1298;-82
2022/04/29 02:43:25;;;;;;;;;;;;;;;;;;5046201;28;1240;-82
2022/04/29 02:45:51;;;;;;;;;;;;;;;;;;5031728;28;1255;-82
2022/04/29 02:48:18;;;;;;;;;;;;;;;;;;5026288;28;1145;-82
2022/04/29 02:50:43;;;;;;;;;;;;;;;;;;5022660;28;1088;-82
2022/04/29 02:53:09;;;;;;;;;;;;;;;;;;5011068;28;1898;-82
2022/04/29 02:55:34;;;;;;;;;;;;;;;;;;5038729;28;1190;-82
2022/04/29 02:57:59;;;;;;;;;;;;;;;;;;5029830;28;1211;-83
2022/04/29 03:00:32;;;;;;;;;;;;;;;;;;5026468;28;1231;-83
2022/04/29 03:02:57;;;;;;;;;;;;;;;;;;5013990;28;1563;-81
2022/04/29 03:05:23;;;;;;;;;;;;;;;;;;5022790;28;1266;-82
2022/04/29 03:07:48;;;;;;;;;;;;;;;;;;5033403;28;1184;-82
2022/04/29 03:10:20;;;;;;;;;;;;;;;;;;5007568;28;1236;-83
2022/04/29 03:12:46;;;;;;;;;;;;;;;;;;5023156;28;1902;-81
2022/04/29 03:15:18;;;;;;;;;;;;;;;;;;5004384;28;1339;-83
2022/04/29 03:20:35;;;;;;;;;;;;;;;;;;5038971;28;1025;-82
2022/04/29 03:23:00;;;;;;;;;;;;;;;;;;5028904;28;1208;-82
2022/04/29 03:25:29;;;;;;;;;;;;;;;;;;5043523;28;1360;-82
2022/04/29 03:27:54;;;;;;;;;;;;;;;;;;5045682;28;1153;-81
2022/04/29 03:30:20;;;;;;;;;;;;;;;;;;5027641;28;1174;-82
2022/04/29 03:32:51;;;;;;;;;;;;;;;;;;5022301;28;1960;-81
2022/04/29 03:35:16;;;;;;;;;;;;;;;;;;5037835;28;1198;-82
2022/04/29 03:37:41;;;;;;;;;;;;;;;;;;5024716;28;1366;-82
2022/04/29 03:40:07;;;;;;;;;;;;;;;;;;5012572;28;1228;-82
2022/04/29 03:42:32;;;;;;;;;;;;;;;;;;5022486;28;1510;-81
2022/04/29 03:44:58;;;;;;;;;;;;;;;;;;5013528;28;1269;-81
2022/04/29 03:47:23;;;;;;;;;;;;;;;;;;5019292;28;1217;-82
2022/04/29 03:49:49;;;;;;;;;;;;;;;;;;5009690;28;1302;-82
2022/04/29 03:52:14;;;;;;;;;;;;;;;;;;5037884;28;1893;-82
2022/04/29 03:54:39;;;;;;;;;;;;;;;;;;5041127;28;1129;-83
2022/04/29 03:57:04;;;;;;;;;;;;;;;;;;5016901;28;1188;-82
2022/04/29 03:59:39;;;;;;;;;;;;;;;;;;5046770;28;1216;-83
2022/04/29 04:02:05;;;;;;;;;;;;;;;;;;5015659;28;1181;-81
2022/04/29 04:04:40;;;;;;;;;;;;;;;;;;5036790;28;1179;-81
2022/04/29 04:07:06;;;;;;;;;;;;;;;;;;5042456;28;1293;-81
2022/04/29 04:09:40;;;;;;;;;;;;;;;;;;5044309;28;1287;-82
2022/04/29 04:12:05;;;;;;;;;;;;;;;;;;5024656;28;1939;-82
2022/04/29 04:14:40;;;;;;;;;;;;;;;;;;5040308;28;1189;-81
2022/04/29 04:17:07;;;;;;;;;;;;;;;;;;5035566;28;1366;-81
2022/04/29 04:19:44;;;;;;;;;;;;;;;;;;5040933;28;1078;-82
2022/04/29 04:22:10;;;;;;;;;;;;;;;;;;5023518;28;1133;-82
2022/04/29 04:24:36;;;;;;;;;;;;;;;;;;5037159;28;1303;-81
2022/04/29 04:27:01;;;;;;;;;;;;;;;;;;5026866;28;1192;-82
2022/04/29 04:29:26;;;;;;;;;;;;;;;;;;5041064;28;1230;-83
2022/04/29 04:31:53;;;;;;;;;;;;;;;;;;5022664;28;1969;-82
2022/04/29 04:37:02;;;;;;;;;;;;;;;;;;5037649;28;1031;-81
2022/04/29 04:39:28;;;;;;;;;;;;;;;;;;5041283;28;1148;-82
2022/04/29 04:41:53;;;;;;;;;;;;;;;;;;5025068;28;1044;-82
2022/04/29 04:44:18;;;;;;;;;;;;;;;;;;5032648;28;1190;-82
2022/04/29 04:46:44;;;;;;;;;;;;;;;;;;5007107;28;1629;-82
2022/04/29 04:49:11;;;;;;;;;;;;;;;;;;5020020;28;1320;-81
2022/04/29 04:51:39;;;;;;;;;;;;;;;;;;5012576;28;1949;-81
2022/04/29 04:54:05;;;;;;;;;;;;;;;;;;5030406;28;1204;-82
2022/04/29 04:56:30;;;;;;;;;;;;;;;;;;5015267;28;1269;-81
2022/04/29 04:58:55;;;;;;;;;;;;;;;;;;5038993;28;1182;-80
2022/04/29 05:01:20;;;;;;;;;;;;;;;;;;5011620;28;1205;-81
2022/04/29 05:03:46;;;;;;;;;;;;;;;;;;5036535;28;1114;-81
2022/04/29 05:06:11;;;;;;;;;;;;;;;;;;5043599;28;1189;-82
2022/04/29 05:08:39;;;;;;;;;;;;;;;;;;5012498;28;1375;-80
2022/04/29 05:11:05;;;;;;;;;;;;;;;;;;5022065;28;1231;-80
2022/04/29 05:13:30;;;;;;;;;;;;;;;;;;5023327;28;1954;-80
2022/04/29 05:15:57;;;;;;;;;;;;;;;;;;5024975;28;1169;-80
2022/04/29 05:18:22;;;;;;;;;;;;;;;;;;5023832;28;1313;-79
2022/04/29 05:20:48;;;;;;;;;;;;;;;;;;5033151;28;1173;-81
2022/04/29 05:23:13;;;;;;;;;;;;;;;;;;5033610;28;1232;-82
2022/04/29 05:25:42;;;;;;;;;;;;;;;;;;5029218;28;1167;-82
2022/04/29 05:28:08;;;;;;;;;;;;;;;;;;5026811;28;1251;-82
2022/04/29 05:30:34;;;;;;;;;;;;;;;;;;5006689;28;1327;-82
2022/04/29 05:33:00;;;;;;;;;;;;;;;;;;5025905;28;1914;-82
2022/04/29 05:35:25;;;;;;;;;;;;;;;;;;5041230;28;1327;-82
2022/04/29 05:37:51;;;;;;;;;;;;;;;;;;5023516;28;1280;-82
2022/04/29 05:43:02;;;;;;;;;;;;;;;;;;5046053;28;1052;-83
2022/04/29 05:45:27;;;;;;;;;;;;;;;;;;5047065;28;1176;-82
2022/04/29 05:47:53;;;;;;;;;;;;;;;;;;5010560;28;1282;-82
2022/04/29 05:50:18;;;;;;;;;;;;;;;;;;5043149;28;1157;-82
2022/04/29 05:52:43;;;;;;;;;;;;;;;;;;5044453;28;2050;-82
2022/04/29 05:55:18;;;;;;;;;;;;;;;;;;5041600;28;1161;-82
2022/04/29 05:57:43;;;;;;;;;;;;;;;;;;5026469;28;1362;-82
2022/04/29 06:00:12;;;;;;;;;;;;;;;;;;5046352;28;1204;-82
2022/04/29 06:02:44;;;;;;;;;;;;;;;;;;5048098;28;1265;-82
2022/04/29 06:05:11;;;;;;;;;;;;;;;;;;5033440;28;1354;-80
2022/04/29 06:07:37;;;;;;;;;;;;;;;;;;5046785;28;1153;-82
2022/04/29 06:10:03;;;;;;;;;;;;;;;;;;5047177;28;1096;-81
2022/04/29 06:12:28;;;;;;;;;;;;;;;;;;5043489;28;1894;-82
2022/04/29 06:14:53;;;;;;;;;;;;;;;;;;5009177;28;1400;-81
2022/04/29 06:17:21;;;;;;;;;;;;;;;;;;5031682;28;1350;-81
2022/04/29 06:19:47;;;;;;;;;;;;;;;;;;5029570;28;1355;-80
2022/04/29 06:22:12;;;;;;;;;;;;;;;;;;5043372;28;1269;-83
2022/04/29 06:24:39;;;;;;;;;;;;;;;;;;5037647;28;1254;-81
2022/04/29 06:27:05;;;;;;;;;;;;;;;;;;5009299;28;1237;-82
2022/04/29 06:29:30;;;;;;;;;;;;;;;;;;5028229;28;1302;-82
2022/04/29 06:31:55;;;;;;;;;;;;;;;;;;5011751;28;1969;-82
2022/04/29 06:34:21;;;;;;;;;;;;;;;;;;5047499;28;1172;-82
2022/04/29 06:36:46;;;;;;;;;;;;;;;;;;5038853;28;1222;-82
2022/04/29 06:39:11;;;;;;;;;;;;;;;;;;5039514;28;1157;-82
2022/04/29 06:41:36;;;;;;;;;;;;;;;;;;5036769;28;1148;-82
2022/04/29 06:44:03;;;;;;;;;;;;;;;;;;5045857;28;1170;-82
2022/04/29 06:46:28;;;;;;;;;;;;;;;;;;5033247;28;1272;-81
2022/04/29 06:48:54;;;;;;;;;;;;;;;;;;5036812;28;1129;-82
2022/04/29 06:51:20;;;;;;;;;;;;;;;;;;5029949;28;1940;-81
2022/04/29 06:53:49;;;;;;;;;;;;;;;;;;5044508;28;1268;-81
2022/04/29 06:56:14;;;;;;;;;;;;;;;;;;5027616;28;1216;-82
2022/04/29 06:58:41;;;;;;;;;;;;;;;;;;5025500;28;1295;-82
2022/04/29 07:01:07;;;;;;;;;;;;;;;;;;5042748;28;1208;-82
2022/04/29 07:03:32;;;;;;;;;;;;;;;;;;5046066;28;1164;-82
2022/04/29 07:06:00;;;;;;;;;;;;;;;;;;5036734;28;1180;-81
2022/04/29 07:08:26;;;;;;;;;;;;;;;;;;5045834;28;1052;-82
2022/04/29 07:10:51;;;;;;;;;;;;;;;;;;5043467;28;1117;-81
2022/04/29 07:13:16;;;;;;;;;;;;;;;;;;5051049;28;1886;-81
2022/04/29 07:15:43;;;;;;;;;;;;;;;;;;5037240;28;1123;-82
2022/04/29 07:18:12;;;;;;;;;;;;;;;;;;5042065;28;1172;-82
2022/04/29 07:20:37;;;;;;;;;;;;;;;;;;5014224;28;1315;-81
2022/04/29 07:23:02;;;;;;;;;;;;;;;;;;5038201;28;1222;-81
2022/04/29 07:25:28;;;;;;;;;;;;;;;;;;5024034;28;1118;-82
2022/04/29 07:27:53;;;;;;;;;;;;;;;;;;5025846;28;1628;-81
2022/04/29 07:30:18;;;;;;;;;;;;;;;;;;5028010;28;1146;-81
2022/04/29 07:32:44;;;;;;;;;;;;;;;;;;5028987;28;1967;-80
2022/04/29 07:43:21;;;;;;;;;;;;;;;;;;5031871;28;1005;-81
2022/04/29 07:45:51;;;;;;;;;;;;;;;;;;5023047;28;1209;-82
2022/04/29 07:48:16;;;;;;;;;;;;;;;;;;5025553;28;1173;-82
2022/04/29 07:50:42;;;;;;;;;;;;;;;;;;5036702;28;1171;-82
2022/04/29 07:53:08;;;;;;;;;;;;;;;;;;5026113;28;1969;-80
2022/04/29 07:55:34;;;;;;;;;;;;;;;;;;5022878;28;1362;-82
2022/04/29 07:58:00;;;;;;;;;;;;;;;;;;5025823;28;1228;-82
2022/04/29 08:00:25;;;;;;;;;;;;;;;;;;5016561;28;1184;-82
2022/04/29 08:02:54;;;;;;;;;;;;;;;;;;5038558;28;1172;-83
2022/04/29 08:05:20;;;;;;;;;;;;;;;;;;5040007;28;1476;-83
2022/04/29 08:07:47;;;;;;;;;;;;;;;;;;5027973;28;1200;-83
2022/04/29 08:10:14;;;;;;;;;;;;;;;;;;5039010;28;1278;-82
2022/04/29 08:12:40;;;;;;;;;;;;;;;;;;5007257;28;1929;-81
2022/04/29 08:15:06;;;;;;;;;;;;;;;;;;5017569;28;1278;-81
2022/04/29 08:17:31;;;;;;;;;;;;;;;;;;5007428;28;1201;-79
2022/04/29 08:19:58;;;;;;;;;;;;;;;;;;5019894;28;1337;-81
2022/04/29 08:22:24;;;;;;;;;;;;;;;;;;5024502;28;1118;-75
2022/04/29 08:24:50;;;;;;;;;;;;;;;;;;5023354;28;1140;-78
2022/04/29 08:27:15;;;;;;;;;;;;;;;;;;5020052;28;1227;-79
2022/04/29 08:29:40;;;;;;;;;;;;;;;;;;5004267;28;1185;-80
2022/04/29 08:32:06;;;;;;;;;;;;;;;;;;5005916;28;1977;-81
2022/04/29 08:34:33;;;;;;;;;;;;;;;;;;5006254;28;1168;-81
2022/04/29 08:37:02;;;;;;;;;;;;;;;;;;5004946;28;1172;-80
2022/04/29 08:39:27;;;;;;;;;;;;;;;;;;5024299;28;1230;-81
2022/04/29 08:42:00;;;;;;;;;;;;;;;;;;5019228;28;1187;-78
2022/04/29 08:44:26;;;;;;;;;;;;;;;;;;5020396;28;1358;-79
2022/04/29 08:46:58;;;;;;;;;;;;;;;;;;5024997;28;1366;-78
2022/04/29 08:49:24;;;;;;;;;;;;;;;;;;5024907;28;1204;-78
2022/04/29 08:51:50;;;;;;;;;;;;;;;;;;5022276;28;1949;-78
2022/04/29 08:58:36;;;;;;;;;;;;;;;;;;5004128;28;1153;-78
2022/04/29 08:59:46;;;;;;;;;;;;;;;;;;5040688;28;1091;-77
2022/04/29 09:02:12;;;;;;;;;;;;;;;;;;5039518;28;1290;-77
2022/04/29 09:04:39;;;;;;;;;;;;;;;;;;5041462;28;1266;-77
2022/04/29 09:07:05;;;;;;;;;;;;;;;;;;5016961;28;1183;-78
2022/04/29 09:09:31;;;;;;;;;;;;;;;;;;5024541;28;1137;-78
2022/04/29 09:12:16;;;;;;;;;;;;;;;;;;5020771;28;1890;-77
2022/04/29 09:14:41;;;;;;;;;;;;;;;;;;5045627;28;1109;-78
2022/04/29 09:17:17;;;;;;;;;;;;;;;;;;5045921;28;1212;-78
2022/04/29 09:19:45;;;;;;;;;;;;;;;;;;5045411;28;1210;-76
2022/04/29 09:22:12;;;;;;;;;;;;;;;;;;5044613;28;1281;-78
2022/04/29 09:24:37;;;;;;;;;;;;;;;;;;5049234;28;1275;-78
2022/04/29 09:27:04;;;;;;;;;;;;;;;;;;5043425;28;1235;-78
2022/04/29 09:29:38;;;;;;;;;;;;;;;;;;5029724;28;1294;-77
2022/04/29 09:32:04;;;;;;;;;;;;;;;;;;5026334;28;1921;-77
2022/04/29 09:34:50;;;;;;;;;;;;;;;;;;5027162;28;1063;-77
2022/04/29 09:37:16;;;;;;;;;;;;;;;;;;5026576;28;1193;-77
2022/04/29 09:39:54;;;;;;;;;;;;;;;;;;5028148;28;1177;-77
2022/04/29 09:42:20;;;;;;;;;;;;;;;;;;5040426;28;1153;-77
2022/04/29 09:44:45;;;;;;;;;;;;;;;;;;5043716;28;1279;-78
2022/04/29 09:47:12;;;;;;;;;;;;;;;;;;5046076;28;1161;-77
2022/04/29 09:49:39;;;;;;;;;;;;;;;;;;5046835;28;1212;-77
2022/04/29 09:52:05;;;;;;;;;;;;;;;;;;5042614;28;1893;-76
2022/04/29 09:54:35;;;;;;;;;;;;;;;;;;5027361;28;1141;-77
2022/04/29 09:57:07;;;;;;;;;;;;;;;;;;5007112;28;1334;-77
2022/04/29 09:59:38;;;;;;;;;;;;;;;;;;5024918;28;1169;-78
2022/04/29 10:02:04;;;;;;;;;;;;;;;;;;5023021;28;1542;-77
2022/04/29 10:04:31;;;;;;;;;;;;;;;;;;5025560;28;1269;-77
2022/04/29 10:06:56;;;;;;;;;;;;;;;;;;5024057;28;1196;-77
2022/04/29 10:09:24;;;;;;;;;;;;;;;;;;5025999;28;1038;-77
2022/04/29 10:11:50;;;;;;;;;;;;;;;;;;5023928;28;1973;-77
2022/04/29 10:14:16;;;;;;;;;;;;;;;;;;5003533;28;1388;-78
2022/04/29 10:16:44;;;;;;;;;;;;;;;;;;5039687;28;1204;-77
2022/04/29 10:21:58;;;;;;;;;;;;;;;;;;5044642;28;1239;-79
2022/04/29 10:24:25;;;;;;;;;;;;;;;;;;5012973;28;1318;-77
2022/04/29 10:26:52;;;;;;;;;;;;;;;;;;5006879;28;1239;-79
2022/04/29 10:29:18;;;;;;;;;;;;;;;;;;5023590;28;1181;-78
2022/04/29 10:32:06;;;;;;;;;;;;;;;;;;5025962;28;1914;-77
2022/04/29 10:34:32;;;;;;;;;;;;;;;;;;5024955;28;1203;-79
2022/04/29 10:36:58;;;;;;;;;;;;;;;;;;5036372;28;1234;-78
2022/04/29 10:39:23;;;;;;;;;;;;;;;;;;5035601;28;1295;-78
2022/04/29 10:42:06;;;;;;;;;;;;;;;;;;5011769;28;1233;-79
2022/04/29 10:44:31;;;;;;;;;;;;;;;;;;5042776;28;1332;-79
2022/04/29 10:47:16;;;;;;;;;;;;;;;;;;5020382;28;1296;-79
2022/04/29 10:49:45;;;;;;;;;;;;;;;;;;5024066;28;1171;-79
2022/04/29 10:52:27;;;;;;;;;;;;;;;;;;5023445;28;1898;-79
2022/04/29 10:54:56;;;;;;;;;;;;;;;;;;5008985;28;1243;-79
2022/04/29 10:57:35;;;;;;;;;;;;;;;;;;5040288;28;1323;-81
2022/04/29 11:00:23;;;;;;;;;;;;;;;;;;5019843;28;1113;-79
2022/04/29 11:02:49;;;;;;;;;;;;;;;;;;5025407;28;1542;-80
2022/04/29 11:05:34;;;;;;;;;;;;;;;;;;5020345;28;1149;-79
2022/04/29 11:08:07;;;;;;;;;;;;;;;;;;5040149;28;1296;-78
2022/04/29 11:10:53;;;;;;;;;;;;;;;;;;5041922;28;1116;-78
2022/04/29 11:13:21;;;;;;;;;;;;;;;;;;5042534;28;1901;-79
2022/04/29 11:15:46;;;;;;;;;;;;;;;;;;5043288;28;1116;-79
2022/04/29 11:18:15;;;;;;;;;;;;;;;;;;5027971;28;1107;-78
2022/04/29 11:20:43;;;;;;;;;;;;;;;;;;5041314;28;1200;-79
2022/04/29 11:25:55;;;;;;;;;;;;;;;;;;5042192;28;1028;-79
2022/04/29 11:28:21;;;;;;;;;;;;;;;;;;5041593;28;1240;-79
2022/04/29 11:30:47;;;;;;;;;;;;;;;;;;5043261;28;1176;-79
2022/04/29 11:33:12;;;;;;;;;;;;;;;;;;5027183;28;1925;-79
2022/04/29 11:35:37;;;;;;;;;;;;;;;;;;5020000;28;1378;-78
2022/04/29 11:38:03;;;;;;;;;;;;;;;;;;5007157;28;1262;-80
2022/04/29 11:40:28;;;;;;;;;;;;;;;;;;5020409;28;1188;-77
2022/04/29 11:42:54;;;;;;;;;;;;;;;;;;5025581;28;1200;-78
2022/04/29 11:45:21;;;;;;;;;;;;;;;;;;5025707;28;1433;-77
2022/04/29 11:47:46;;;;;;;;;;;;;;;;;;5023792;28;1236;-79
2022/04/29 11:50:12;;;;;;;;;;;;;;;;;;5017906;28;1317;-78
2022/04/29 11:52:39;;;;;;;;;;;;;;;;;;5014323;28;1953;-79
2022/04/29 11:55:18;;;;;;;;;;;;;;;;;;5033956;28;1233;-79
2022/04/29 11:57:49;;;;;;;;;;;;;;;;;;5024108;28;1234;-79
2022/04/29 12:00:21;;;;;;;;;;;;;;;;;;5018849;28;1275;-81
2022/04/29 12:02:49;;;;;;;;;;;;;;;;;;5024451;28;1388;-79
2022/04/29 12:05:14;;;;;;;;;;;;;;;;;;5015746;28;1333;-78
2022/04/29 12:07:40;;;;;;;;;;;;;;;;;;5009671;28;1180;-78
2022/04/29 12:10:20;;;;;;;;;;;;;;;;;;5023600;28;1208;-78
2022/04/29 12:12:49;;;;;;;;;;;;;;;;;;5023634;28;1882;-79
2022/04/29 12:15:18;;;;;;;;;;;;;;;;;;5018361;28;1252;-78
2022/04/29 12:17:43;;;;;;;;;;;;;;;;;;5024005;28;1317;-79
2022/04/29 12:20:17;;;;;;;;;;;;;;;;;;5019190;28;1125;-79
2022/04/29 12:22:43;;;;;;;;;;;;;;;;;;5024634;28;1368;-78
2022/04/29 12:25:27;;;;;;;;;;;;;;;;;;5022311;28;1480;-79
2022/04/29 12:28:18;;;;;;;;;;;;;;;;;;5024219;28;1141;-78
2022/04/29 12:36:49;;;;;;;;;;;;;;;;;;5024822;28;1002;-78
2022/04/29 12:39:16;;;;;;;;;;;;;;;;;;5022753;28;1215;-78
2022/04/29 12:41:42;;;;;;;;;;;;;;;;;;5022493;28;1356;-79
2022/04/29 12:45:03;;;;;;;;;;;;;;;;;;5024649;28;1212;-78
2022/04/29 12:46:57;;;;;;;;;;;;;;;;;;5041934;28;1010;-78
2022/04/29 12:49:22;;;;;;;;;;;;;;;;;;5042527;28;1216;-80
2022/04/29 12:51:56;;;;;;;;;;;;;;;;;;5039620;28;1898;-78
2022/04/29 12:54:26;;;;;;;;;;;;;;;;;;5040539;28;1217;-78
2022/04/29 12:56:51;;;;;;;;;;;;;;;;;;5042620;28;1416;-78
2022/04/29 12:59:24;;;;;;;;;;;;;;;;;;5022736;28;1271;-79
2022/04/29 13:01:49;;;;;;;;;;;;;;;;;;5027509;28;1192;-80
2022/04/29 13:04:15;;;;;;;;;;;;;;;;;;5043381;28;1327;-78
2022/04/29 13:06:40;;;;;;;;;;;;;;;;;;5025636;28;1473;-78
2022/04/29 13:09:05;;;;;;;;;;;;;;;;;;5044746;28;1271;-79
2022/04/29 13:11:32;;;;;;;;;;;;;;;;;;5040882;28;1569;-80
2022/04/29 13:13:58;;;;;;;;;;;;;;;;;;5010900;28;1894;-79
2022/04/29 13:16:23;;;;;;;;;;;;;;;;;;5017445;28;1267;-79
2022/04/29 13:18:49;;;;;;;;;;;;;;;;;;5040183;28;1293;-80
2022/04/29 13:21:18;;;;;;;;;;;;;;;;;;5040766;28;1212;-80
2022/04/29 13:23:44;;;;;;;;;;;;;;;;;;5026705;28;1208;-80
2022/04/29 13:26:11;;;;;;;;;;;;;;;;;;5042915;28;1645;-79
2022/04/29 13:28:44;;;;;;;;;;;;;;;;;;5041202;28;1148;-79
2022/04/29 13:31:10;;;;;;;;;;;;;;;;;;5042488;28;1274;-79
2022/04/29 13:33:35;;;;;;;;;;;;;;;;;;5008305;28;1965;-78
2022/04/29 13:36:01;;;;;;;;;;;;;;;;;;5026744;28;1137;-78
2022/04/29 13:38:26;;;;;;;;;;;;;;;;;;5042185;28;1180;-79
2022/04/29 13:40:52;;;;;;;;;;;;;;;;;;5042899;28;1172;-78
2022/04/29 13:43:18;;;;;;;;;;;;;;;;;;5041907;28;1285;-78
2022/04/29 13:45:44;;;;;;;;;;;;;;;;;;5039428;28;1223;-79
2022/04/29 13:48:11;;;;;;;;;;;;;;;;;;5042879;28;1252;-79
2022/04/29 13:50:37;;;;;;;;;;;;;;;;;;5039353;28;1182;-78
2022/04/29 13:53:08;;;;;;;;;;;;;;;;;;5044375;28;1898;-79
2022/04/29 13:55:35;;;;;;;;;;;;;;;;;;5040521;28;1246;-79
2022/04/29 13:58:00;;;;;;;;;;;;;;;;;;5043969;28;1292;-81
2022/04/29 14:00:25;;;;;;;;;;;;;;;;;;5041891;28;1245;-78
2022/04/29 14:02:51;;;;;;;;;;;;;;;;;;5041139;28;1212;-79
2022/04/29 14:05:23;;;;;;;;;;;;;;;;;;5023560;28;1288;-77
2022/04/29 14:07:48;;;;;;;;;;;;;;;;;;5028180;28;1168;-78
2022/04/29 14:10:13;;;;;;;;;;;;;;;;;;5025205;28;1307;-78
2022/04/29 14:12:39;;;;;;;;;;;;;;;;;;5022944;28;1964;-78
2022/04/29 14:15:06;;;;;;;;;;;;;;;;;;5023160;28;1195;-79
2022/04/29 14:17:31;;;;;;;;;;;;;;;;;;5025566;28;1066;-78
2022/04/29 14:19:56;;;;;;;;;;;;;;;;;;5038437;28;1287;-78
2022/04/29 14:22:22;;;;;;;;;;;;;;;;;;5032063;28;1322;-78
2022/04/29 14:24:47;;;;;;;;;;;;;;;;;;5043620;28;1331;-78
2022/04/29 14:27:12;;;;;;;;;;;;;;;;;;5030442;28;1266;-77
2022/04/29 14:29:39;;;;;;;;;;;;;;;;;;5030715;28;1279;-78
2022/04/29 14:32:06;;;;;;;;;;;;;;;;;;5049005;28;1976;-78
2022/04/29 14:34:32;;;;;;;;;;;;;;;;;;5045894;28;1142;-78
2022/04/29 14:37:00;;;;;;;;;;;;;;;;;;5045569;28;1306;-78
2022/04/29 14:39:28;;;;;;;;;;;;;;;;;;5046323;28;1409;-77
2022/04/29 14:41:55;;;;;;;;;;;;;;;;;;5051146;28;1264;-78
2022/04/29 14:44:23;;;;;;;;;;;;;;;;;;5035442;28;1387;-77
2022/04/29 14:46:49;;;;;;;;;;;;;;;;;;5030914;28;1391;-79
2022/04/29 14:49:14;;;;;;;;;;;;;;;;;;5049708;28;1168;-78
2022/04/29 14:51:40;;;;;;;;;;;;;;;;;;5043820;28;1922;-79
2022/04/29 14:54:07;;;;;;;;;;;;;;;;;;5047446;28;1175;-79
2022/04/29 14:56:32;;;;;;;;;;;;;;;;;;5050137;28;1346;-80
2022/04/29 14:58:58;;;;;;;;;;;;;;;;;;5045007;28;1234;-78
2022/04/29 15:01:30;;;;;;;;;;;;;;;;;;5024356;28;1295;-77
2022/04/29 15:03:55;;;;;;;;;;;;;;;;;;5038615;28;1181;-78
2022/04/29 15:06:26;;;;;;;;;;;;;;;;;;5042605;28;1117;-75
2022/04/29 15:17:05;;;;;;;;;;;;;;;;;;5044661;28;1017;-76
2022/04/29 15:19:30;;;;;;;;;;;;;;;;;;5026511;28;1450;-76
2022/04/29 15:21:55;;;;;;;;;;;;;;;;;;5025350;28;1279;-76
2022/04/29 15:24:24;;;;;;;;;;;;;;;;;;5044544;28;1133;-78
2022/04/29 15:26:49;;;;;;;;;;;;;;;;;;5042471;28;1316;-77
2022/04/29 15:29:15;;;;;;;;;;;;;;;;;;5042537;28;1212;-77
2022/04/29 15:31:40;;;;;;;;;;;;;;;;;;5024441;28;1977;-77
2022/04/29 15:34:05;;;;;;;;;;;;;;;;;;5025305;28;1254;-77
2022/04/29 15:36:30;;;;;;;;;;;;;;;;;;5038763;28;1204;-77
2022/04/29 15:38:56;;;;;;;;;;;;;;;;;;5013007;28;1328;-78
2022/04/29 15:41:28;;;;;;;;;;;;;;;;;;5007293;28;1291;-78
2022/04/29 15:43:53;;;;;;;;;;;;;;;;;;5012062;28;1193;-77
2022/04/29 15:46:18;;;;;;;;;;;;;;;;;;5043778;28;1168;-78
2022/04/29 15:48:44;;;;;;;;;;;;;;;;;;5025548;28;1224;-79
2022/04/29 15:51:09;;;;;;;;;;;;;;;;;;5041188;28;1215;-79
2022/04/29 15:53:34;;;;;;;;;;;;;;;;;;5027088;28;1947;-78
2022/04/29 15:56:00;;;;;;;;;;;;;;;;;;5027141;28;1175;-78
2022/04/29 15:58:27;;;;;;;;;;;;;;;;;;5042657;28;1125;-78
2022/04/29 16:00:52;;;;;;;;;;;;;;;;;;5023245;28;1198;-79
2022/04/29 16:03:17;;;;;;;;;;;;;;;;;;5034868;28;1206;-74
2022/04/29 16:05:43;;;;;;;;;;;;;;;;;;5005877;28;1220;-75
2022/04/29 16:08:09;;;;;;;;;;;;;;;;;;5039744;28;1544;-75
2022/04/29 16:10:34;;;;;;;;;;;;;;;;;;5036891;28;1122;-75
2022/04/29 16:13:00;;;;;;;;;;;;;;;;;;5031158;28;1882;-76
2022/04/29 16:15:32;;;;;;;;;;;;;;;;;;5028528;28;1326;-76
2022/04/29 16:20:43;;;;;;;;;;;;;;;;;;5018067;28;1001;-75
2022/04/29 16:25:53;;;;;;;;;;;;;;;;;;5038913;28;1032;-75
2022/04/29 16:28:19;;;;;;;;;;;;;;;;;;5006158;28;1204;-74
2022/04/29 16:30:45;;;;;;;;;;;;;;;;;;4997763;28;1251;-76
2022/04/29 16:33:12;;;;;;;;;;;;;;;;;;5021187;28;1973;-75
2022/04/29 16:35:38;;;;;;;;;;;;;;;;;;5013610;28;1057;-75
2022/04/29 16:38:04;;;;;;;;;;;;;;;;;;4999766;28;1587;-75
2022/04/29 16:40:32;;;;;;;;;;;;;;;;;;5023275;28;1629;-75
2022/04/29 16:42:58;;;;;;;;;;;;;;;;;;5023126;28;1126;-74
2022/04/29 16:45:24;;;;;;;;;;;;;;;;;;5036270;28;1189;-75
2022/04/29 16:47:51;;;;;;;;;;;;;;;;;;5042217;28;1325;-74
2022/04/29 16:50:16;;;;;;;;;;;;;;;;;;5041443;28;1133;-75
2022/04/29 16:52:41;;;;;;;;;;;;;;;;;;5025052;28;1955;-75
2022/04/29 16:55:07;;;;;;;;;;;;;;;;;;5007666;28;1213;-75
2022/04/29 17:00:17;;;;;;;;;;;;;;;;;;5043784;28;1072;-73
2022/04/29 17:02:42;;;;;;;;;;;;;;;;;;5042342;28;1033;-74
2022/04/29 17:05:07;;;;;;;;;;;;;;;;;;5040243;28;1420;-74
2022/04/29 17:07:33;;;;;;;;;;;;;;;;;;5026129;28;1219;-75
2022/04/29 17:09:59;;;;;;;;;;;;;;;;;;5032141;28;1271;-73
2022/04/29 17:12:24;;;;;;;;;;;;;;;;;;5022006;28;1890;-76
2022/04/29 17:14:49;;;;;;;;;;;;;;;;;;5019355;28;1265;-75
2022/04/29 17:17:16;;;;;;;;;;;;;;;;;;5012074;28;1262;-76
2022/04/29 17:19:49;;;;;;;;;;;;;;;;;;5037349;28;1093;-75
2022/04/29 17:22:14;;;;;;;;;;;;;;;;;;5007961;28;1360;-76
2022/04/29 17:24:41;;;;;;;;;;;;;;;;;;5022734;28;1140;-75
2022/04/29 17:27:06;;;;;;;;;;;;;;;;;;5025006;28;1236;-75
2022/04/29 17:29:35;;;;;;;;;;;;;;;;;;5025354;28;1419;-75
2022/04/29 17:32:00;;;;;;;;;;;;;;;;;;5026083;28;1910;-75
2022/04/29 17:34:25;;;;;;;;;;;;;;;;;;5047297;28;1210;-76
2022/04/29 17:36:51;;;;;;;;;;;;;;;;;;5027121;28;1150;-76
2022/04/29 17:44:44;;;;;;;;;;;;;;;;;;5045279;28;1017;-75
2022/04/29 17:47:09;;;;;;;;;;;;;;;;;;5047727;28;1223;-75
2022/04/29 17:49:36;;;;;;;;;;;;;;;;;;5046898;28;1249;-76
2022/04/29 17:52:02;;;;;;;;;;;;;;;;;;5043956;28;1886;-75
2022/04/29 17:54:27;;;;;;;;;;;;;;;;;;5047304;28;1160;-75
2022/04/29 17:56:53;;;;;;;;;;;;;;;;;;5022725;28;1186;-75